Time;durP1;ratioP1;P1;durP2;ratioP2;P2;SDS_P1;SDS_P2;PMS_P1;PMS_P2;Temp;Humidity;BMP_temperature;BMP_pressure;BME280_temperature;BME280_humidity;BME280_pressure;Samples;Min_cycle;Max_cycle;Signal;HPM_P1;HPM_P2
2022/12/31 00:02:45;;;;;;;70.03;34.78;;;;;;;4.11;100.00;99230.77;4194662;82;28552;-78
2022/12/31 00:08:47;;;;;;;67.75;34.00;;;;;;;4.09;100.00;99234.94;4186167;82;28517;-78
2022/12/31 00:14:48;;;;;;;65.97;34.23;;;;;;;4.10;100.00;99218.48;4216551;82;28532;-79
2022/12/31 00:20:49;;;;;;;64.45;32.58;;;;;;;4.00;100.00;99226.73;4199924;83;28495;-78
2022/12/31 00:26:50;;;;;;;68.15;35.75;;;;;;;3.75;100.00;99226.51;4213159;82;28527;-78
2022/12/31 00:32:51;;;;;;;64.03;33.50;;;;;;;3.86;100.00;99224.41;4181302;82;28565;-78
2022/12/31 00:38:54;;;;;;;62.23;32.78;;;;;;;3.76;100.00;99212.20;4206078;83;28551;-79
2022/12/31 00:45:02;;;;;;;68.60;35.50;;;;;;;3.44;100.00;99231.45;4167601;83;28571;-78
2022/12/31 00:51:06;;;;;;;69.17;33.92;;;;;;;3.48;100.00;99234.55;4200422;83;28571;-78
2022/12/31 00:57:07;;;;;;;62.15;32.03;;;;;;;3.68;100.00;99236.70;4207757;81;28585;-78
2022/12/31 01:03:08;;;;;;;63.65;32.10;;;;;;;3.73;100.00;99232.48;4189428;82;28577;-78
2022/12/31 01:09:13;;;;;;;62.03;32.05;;;;;;;3.91;100.00;99222.01;4187544;82;28508;-77
2022/12/31 01:15:14;;;;;;;69.17;34.67;;;;;;;3.82;100.00;99212.47;4199831;82;28557;-77
2022/12/31 01:21:16;;;;;;;64.07;33.60;;;;;;;4.12;100.00;99208.47;4224760;82;28547;-77
2022/12/31 01:27:17;;;;;;;66.77;33.13;;;;;;;4.08;100.00;99211.20;4217645;82;28545;-77
2022/12/31 01:33:18;;;;;;;69.37;33.80;;;;;;;4.09;100.00;99208.33;4188988;82;28567;-77
2022/12/31 01:39:20;;;;;;;68.00;33.60;;;;;;;4.01;100.00;99209.27;4208122;82;28542;-78
2022/12/31 01:45:21;;;;;;;64.35;32.95;;;;;;;4.12;100.00;99203.99;4208102;82;28522;-77
2022/12/31 01:51:25;;;;;;;67.32;33.70;;;;;;;4.08;100.00;99189.91;4192931;82;28575;-76
2022/12/31 01:57:26;;;;;;;64.07;32.35;;;;;;;4.17;100.00;99192.27;4198390;81;28482;-80
2022/12/31 02:03:27;;;;;;;64.45;32.78;;;;;;;4.05;100.00;99213.71;4173431;81;28545;-78
2022/12/31 02:09:32;;;;;;;64.65;33.23;;;;;;;4.07;100.00;99208.22;4160071;83;28493;-78
2022/12/31 02:15:40;;;;;;;61.60;31.90;;;;;;;4.18;100.00;99203.75;4117712;84;28577;-78
2022/12/31 02:22:04;;;;;;;59.98;30.75;;;;;;;4.09;100.00;99196.36;4196299;83;28482;-78
2022/12/31 02:28:31;;;;;;;64.82;31.82;;;;;;;4.18;100.00;99209.08;4160024;83;28589;-78
2022/12/31 02:34:39;;;;;;;64.27;31.40;;;;;;;4.35;100.00;99216.84;4169261;83;28551;-77
2022/12/31 02:40:40;;;;;;;61.45;32.30;;;;;;;4.53;100.00;99211.11;4182123;83;28544;-78
2022/12/31 02:46:43;;;;;;;60.43;33.00;;;;;;;4.79;100.00;99199.95;4194196;83;28577;-81
2022/12/31 02:52:55;;;;;;;67.35;31.68;;;;;;;4.85;100.00;99214.34;4178938;83;28500;-79
2022/12/31 03:05:35;;;;;;;62.40;32.40;;;;;;;4.49;100.00;99207.18;4241184;82;28570;-81
2022/12/31 03:18:06;;;;;;;59.38;30.70;;;;;;;4.72;100.00;99209.17;4259645;82;28575;-82
2022/12/31 03:30:27;;;;;;;65.22;32.35;;;;;;;4.69;100.00;99186.11;4250748;81;28681;-79
2022/12/31 03:36:28;;;;;;;63.45;32.35;;;;;;;5.05;100.00;99186.55;4250904;82;28600;-78
2022/12/31 03:42:29;;;;;;;63.73;31.85;;;;;;;4.22;100.00;99177.56;4278079;81;28529;-78
2022/12/31 03:48:30;;;;;;;62.75;31.68;;;;;;;4.77;100.00;99160.66;4216649;82;28473;-77
2022/12/31 03:54:31;;;;;;;65.37;33.15;;;;;;;4.69;100.00;99162.95;4206992;82;28590;-77
2022/12/31 04:00:32;;;;;;;65.60;32.73;;;;;;;4.95;100.00;99198.88;4191942;82;28557;-77
2022/12/31 04:06:33;;;;;;;60.55;32.80;;;;;;;5.07;100.00;99209.02;4073388;85;28591;-79
2022/12/31 04:12:35;;;;;;;70.57;35.65;;;;;;;5.19;100.00;99212.81;4183127;84;28572;-81
2022/12/31 04:18:36;;;;;;;62.73;33.23;;;;;;;5.50;100.00;99201.45;4250062;81;28531;-80
2022/12/31 04:24:37;;;;;;;64.72;33.90;;;;;;;5.05;100.00;99210.53;4201358;82;28568;-82
2022/12/31 04:30:39;;;;;;;62.05;32.17;;;;;;;4.85;100.00;99206.35;4237106;82;28527;-82
2022/12/31 04:36:42;;;;;;;62.03;32.75;;;;;;;4.85;100.00;99211.69;4208860;82;28515;-82
2022/12/31 04:42:43;;;;;;;63.15;31.02;;;;;;;4.64;100.00;99205.32;4199701;82;28553;-81
2022/12/31 04:48:46;;;;;;;58.42;30.75;;;;;;;4.72;100.00;99218.50;4236590;81;28550;-82
2022/12/31 04:54:47;;;;;;;63.60;31.77;;;;;;;4.78;100.00;99217.44;4217345;81;28534;-81
2022/12/31 05:00:50;;;;;;;60.05;32.38;;;;;;;4.84;100.00;99214.84;4216597;81;28535;-81
2022/12/31 05:06:51;;;;;;;61.30;30.10;;;;;;;4.84;100.00;99235.31;4208092;82;28496;-82
2022/12/31 05:12:52;;;;;;;61.08;32.17;;;;;;;4.53;100.00;99253.22;4224579;81;28538;-78
2022/12/31 05:18:54;;;;;;;62.90;32.13;;;;;;;4.89;100.00;99251.58;4205085;82;28587;-78
2022/12/31 05:24:58;;;;;;;62.33;31.10;;;;;;;4.86;100.00;99252.77;4234474;82;28545;-80
2022/12/31 05:30:59;;;;;;;57.62;30.77;;;;;;;5.03;100.00;99248.02;4200532;82;28644;-79
2022/12/31 05:37:00;;;;;;;61.33;31.10;;;;;;;4.95;100.00;99244.66;4198283;82;28540;-80
2022/12/31 05:43:02;;;;;;;63.87;31.62;;;;;;;4.79;100.00;99253.22;4163667;82;28524;-81
2022/12/31 05:49:03;;;;;;;58.45;30.77;;;;;;;4.92;100.00;99257.05;4175772;82;28519;-81
2022/12/31 05:55:05;;;;;;;63.73;33.15;;;;;;;5.09;100.00;99253.63;4222815;82;28539;-81
2022/12/31 06:01:07;;;;;;;67.42;33.38;;;;;;;5.19;100.00;99250.62;4195400;82;28591;-81
2022/12/31 06:07:08;;;;;;;61.53;31.65;;;;;;;5.30;100.00;99234.95;4197770;82;28544;-79
2022/12/31 06:13:09;;;;;;;61.98;32.93;;;;;;;5.31;100.00;99235.80;4182094;82;28619;-78
2022/12/31 06:19:10;;;;;;;61.88;31.50;;;;;;;5.56;100.00;99243.38;4197104;82;28571;-79
2022/12/31 06:25:11;;;;;;;46.65;25.08;;;;;;;5.66;100.00;99247.86;4194051;83;28611;-79
2022/12/31 06:31:14;;;;;;;44.93;23.42;;;;;;;5.89;100.00;99259.32;4229533;83;28597;-87
2022/12/31 06:37:15;;;;;;;54.45;29.45;;;;;;;6.11;100.00;99269.43;4199440;83;28536;-81
2022/12/31 06:43:16;;;;;;;54.80;29.15;;;;;;;6.06;100.00;99271.88;4146561;83;28610;-77
2022/12/31 06:49:17;;;;;;;44.95;24.72;;;;;;;6.02;100.00;99286.61;4078186;85;28548;-81
2022/12/31 06:55:19;;;;;;;45.10;25.57;;;;;;;6.07;100.00;99278.33;4214004;82;28522;-84
2022/12/31 07:01:36;;;;;;;42.33;23.27;;;;;;;6.20;100.00;99286.95;4182335;82;28535;-81
2022/12/31 07:07:59;;;;;;;31.35;18.12;;;;;;;6.63;100.00;99287.27;4243736;82;28531;-82
2022/12/31 07:14:26;;;;;;;31.02;16.07;;;;;;;7.07;100.00;99293.69;4213247;82;28502;-80
2022/12/31 07:20:28;;;;;;;16.75;9.73;;;;;;;7.44;100.00;99285.31;4223129;82;28580;-78
2022/12/31 07:26:46;;;;;;;9.50;5.62;;;;;;;8.07;100.00;99286.23;4226969;82;28504;-86
2022/12/31 07:32:56;;;;;;;4.85;2.98;;;;;;;8.47;100.00;99278.61;4222911;82;28506;-84
2022/12/31 07:39:04;;;;;;;4.15;2.12;;;;;;;8.98;100.00;99293.59;4218454;82;28477;-84
2022/12/31 07:45:20;;;;;;;3.55;1.87;;;;;;;9.37;100.00;99301.60;4228089;82;28558;-85
2022/12/31 07:51:24;;;;;;;3.40;1.80;;;;;;;9.71;100.00;99297.34;4234094;82;28557;-82
2022/12/31 07:57:29;;;;;;;2.52;1.67;;;;;;;9.95;100.00;99290.83;4228348;82;28506;-84
2022/12/31 08:03:46;;;;;;;2.47;1.67;;;;;;;10.27;100.00;99301.47;4212773;81;28602;-82
2022/12/31 08:10:03;;;;;;;2.40;1.50;;;;;;;10.51;100.00;99315.94;4193859;83;28515;-83
2022/12/31 08:16:08;;;;;;;2.20;1.60;;;;;;;10.67;100.00;99313.16;4198989;82;28539;-84
2022/12/31 08:22:33;;;;;;;1.70;1.40;;;;;;;10.82;100.00;99313.29;4209923;82;28638;-78
2022/12/31 08:28:50;;;;;;;2.70;1.45;;;;;;;10.92;100.00;99300.67;4181795;82;28577;-78
2022/12/31 08:35:01;;;;;;;2.35;1.30;;;;;;;11.13;100.00;99296.64;4056431;85;28607;-79
2022/12/31 08:41:21;;;;;;;2.10;1.30;;;;;;;11.37;100.00;99298.89;4209781;82;28570;-79
2022/12/31 08:47:38;;;;;;;2.15;1.32;;;;;;;11.75;100.00;99302.25;4199635;83;28527;-79
2022/12/31 08:53:39;;;;;;;2.02;1.30;;;;;;;11.89;100.00;99304.20;4212109;82;28563;-80
2022/12/31 08:59:53;;;;;;;2.22;1.40;;;;;;;12.09;100.00;99308.45;4212923;81;28563;-80
2022/12/31 09:06:03;;;;;;;2.37;1.47;;;;;;;12.50;100.00;99320.69;4172390;83;28550;-81
2022/12/31 09:12:17;;;;;;;2.75;1.52;;;;;;;12.83;100.00;99315.16;4175685;83;28552;-81
2022/12/31 09:18:21;;;;;;;2.67;1.40;;;;;;;12.86;100.00;99314.67;4214194;82;28499;-82
2022/12/31 09:24:23;;;;;;;2.90;1.50;;;;;;;13.13;100.00;99311.42;4208169;83;28507;-82
2022/12/31 09:30:27;;;;;;;2.33;1.37;;;;;;;13.59;100.00;99315.51;4200212;83;28507;-85
2022/12/31 09:36:31;;;;;;;3.67;1.70;;;;;;;13.80;100.00;99311.24;4164247;83;28549;-85
2022/12/31 09:43:00;;;;;;;2.72;1.15;;;;;;;13.68;100.00;99294.81;4209422;83;28502;-84
2022/12/31 09:49:08;;;;;;;2.33;1.55;;;;;;;13.90;99.86;99294.91;4179441;83;28551;-83
2022/12/31 09:55:35;;;;;;;2.58;1.50;;;;;;;13.93;98.57;99306.05;4233422;82;28535;-85
2022/12/31 10:01:57;;;;;;;2.72;1.50;;;;;;;14.12;98.02;99294.14;4184149;84;28572;-84
2022/12/31 10:08:02;;;;;;;3.45;1.55;;;;;;;14.23;96.77;99293.22;4158083;83;28542;-83
2022/12/31 10:14:36;;;;;;;1.77;1.35;;;;;;;14.56;94.88;99286.07;4189204;83;28560;-77
2022/12/31 10:20:56;;;;;;;3.45;1.50;;;;;;;14.60;93.74;99276.40;4199258;82;28959;-77
2022/12/31 10:27:09;;;;;;;2.55;1.57;;;;;;;14.85;91.96;99295.94;4167804;82;28570;-76
2022/12/31 10:33:15;;;;;;;2.85;1.40;;;;;;;15.21;90.17;99295.51;4163899;82;28569;-77
2022/12/31 10:39:39;;;;;;;2.13;1.43;;;;;;;15.45;88.27;99290.04;4193508;81;28519;-77
2022/12/31 10:46:01;;;;;;;2.55;1.30;;;;;;;15.53;87.27;99282.52;4189088;83;28627;-76
2022/12/31 10:52:15;;;;;;;2.50;1.40;;;;;;;15.82;85.44;99271.34;4173006;82;28542;-76
2022/12/31 10:58:39;;;;;;;1.55;1.17;;;;;;;16.07;84.60;99274.80;4178474;83;28502;-80
2022/12/31 11:04:56;;;;;;;1.82;1.20;;;;;;;15.99;84.86;99273.40;4179474;82;28548;-80
2022/12/31 11:11:23;;;;;;;1.70;1.10;;;;;;;15.92;85.56;99272.80;4169035;82;28593;-80
2022/12/31 11:17:46;;;;;;;2.85;1.17;;;;;;;16.05;84.89;99291.87;4188695;82;29094;-82
2022/12/31 11:24:08;;;;;;;2.12;1.47;;;;;;;16.22;83.74;99299.84;4196801;82;28603;-82
2022/12/31 11:30:37;;;;;;;2.02;1.20;;;;;;;16.12;82.21;99301.97;4094236;83;28563;-76
2022/12/31 11:37:03;;;;;;;2.35;1.40;;;;;;;16.49;81.13;99294.02;4090668;84;28652;-80
2022/12/31 11:43:26;;;;;;;2.25;1.30;;;;;;;16.47;79.72;99281.25;4127147;83;28517;-81
2022/12/31 11:49:34;;;;;;;2.20;1.20;;;;;;;16.38;79.42;99290.45;4120114;84;28586;-81
2022/12/31 11:55:51;;;;;;;1.85;1.20;;;;;;;16.30;79.65;99296.64;4118157;83;28513;-82
2022/12/31 12:02:10;;;;;;;2.17;1.00;;;;;;;16.29;79.10;99292.83;4119850;85;28550;-82
2022/12/31 12:08:12;;;;;;;1.75;1.10;;;;;;;16.47;79.22;99288.03;4101341;83;28547;-83
2022/12/31 12:14:34;;;;;;;3.08;1.30;;;;;;;16.23;80.01;99273.55;4064161;85;28585;-83
2022/12/31 12:20:39;;;;;;;2.67;1.30;;;;;;;16.17;80.67;99269.43;4108790;84;28555;-85
2022/12/31 12:26:43;;;;;;;3.40;1.30;;;;;;;16.01;81.40;99269.08;4090380;84;28535;-82
2022/12/31 12:32:52;;;;;;;2.77;1.52;;;;;;;15.94;80.93;99258.99;4138089;83;28563;-84
2022/12/31 12:39:02;;;;;;;2.65;1.60;;;;;;;15.96;81.09;99264.44;4161471;83;28626;-83
2022/12/31 12:45:06;;;;;;;2.22;1.30;;;;;;;15.98;80.43;99270.94;4167695;82;28523;-84
2022/12/31 12:51:20;;;;;;;2.15;1.20;;;;;;;15.88;80.49;99263.53;4183520;83;28554;-83
2022/12/31 12:57:29;;;;;;;2.17;1.32;;;;;;;15.87;80.89;99265.97;4180299;82;28570;-83
2022/12/31 13:03:45;;;;;;;1.87;1.30;;;;;;;15.87;80.83;99258.64;4194209;82;28546;-83
2022/12/31 13:10:11;;;;;;;2.08;1.40;;;;;;;15.83;80.59;99271.09;4185834;83;28545;-82
2022/12/31 13:16:25;;;;;;;2.62;1.75;;;;;;;15.68;80.79;99265.58;4123772;84;28649;-82
2022/12/31 13:22:37;;;;;;;3.45;1.60;;;;;;;15.75;81.15;99258.84;4123220;84;28632;-83
2022/12/31 13:28:41;;;;;;;3.72;1.47;;;;;;;15.77;81.32;99270.77;4131045;83;28556;-82
2022/12/31 13:34:44;;;;;;;3.05;1.70;;;;;;;15.67;81.67;99262.56;4200798;83;28585;-82
2022/12/31 13:41:20;;;;;;;2.92;1.80;;;;;;;15.64;82.37;99269.86;4212404;82;28972;-84
2022/12/31 13:47:30;;;;;;;4.17;1.80;;;;;;;15.56;82.74;99259.77;4203545;82;28538;-83
2022/12/31 13:53:41;;;;;;;3.40;1.87;;;;;;;15.48;83.59;99269.19;4154280;83;28548;-82
2022/12/31 13:59:52;;;;;;;3.47;1.60;;;;;;;15.66;82.97;99277.19;4113163;84;28622;-84
2022/12/31 14:06:03;;;;;;;3.22;2.02;;;;;;;15.57;83.54;99280.92;4135719;84;28545;-82
2022/12/31 14:19:01;;;;;;;3.50;1.87;;;;;;;15.38;84.84;99288.07;4146094;83;28592;-83
2022/12/31 14:25:04;;;;;;;3.05;1.92;;;;;;;15.54;84.99;99296.35;4147930;84;28710;-87
2022/12/31 14:31:40;;;;;;;4.53;2.10;;;;;;;15.52;85.63;99293.89;4191415;83;28507;-87
2022/12/31 14:37:55;;;;;;;3.52;2.15;;;;;;;15.37;86.51;99297.27;4120367;85;28748;-87
2022/12/31 14:44:17;;;;;;;3.40;2.10;;;;;;;15.11;88.76;99303.80;4203733;83;28581;-84
2022/12/31 14:50:24;;;;;;;3.92;2.40;;;;;;;15.01;89.56;99300.44;4185811;83;28567;-85
2022/12/31 14:56:41;;;;;;;3.70;2.25;;;;;;;14.70;91.84;99281.66;4170856;83;28562;-85
2022/12/31 15:02:46;;;;;;;3.92;2.30;;;;;;;14.66;92.07;99294.03;4184412;83;28553;-84
2022/12/31 15:09:25;;;;;;;6.17;2.52;;;;;;;14.53;93.39;99307.42;4186992;83;28537;-87
2022/12/31 15:15:49;;;;;;;;;;;;;;;;;;;;;
2022/12/31 15:22:02;;;;;;;;;;;;;;;;;;;;;
2022/12/31 15:28:16;;;;;;;;;;;;;;;;;;;;;
2022/12/31 15:34:37;;;;;;;6.00;3.20;;;;;;;14.17;96.90;99302.34;3816200;90;28627;-88
2022/12/31 15:46:43;;;;;;;6.33;3.17;;;;;;;14.20;97.45;99332.94;3929070;88;28617;-84
2022/12/31 15:52:53;;;;;;;7.85;3.50;;;;;;;13.99;99.17;99331.27;4102125;83;28529;-84
2022/12/31 15:58:57;;;;;;;7.55;4.05;;;;;;;13.93;99.95;99333.59;4186481;83;28535;-84
2022/12/31 16:04:58;;;;;;;6.85;4.05;;;;;;;13.90;100.00;99338.15;4100154;84;28538;-84
2022/12/31 16:11:05;;;;;;;11.18;5.40;;;;;;;13.87;100.00;99348.91;4111993;83;28492;-85
2022/12/31 16:17:06;;;;;;;;;;;;;;;13.90;100.00;99336.80;4123943;83;28532;-84
2022/12/31 16:23:25;;;;;;;6.50;4.05;;;;;;;13.95;100.00;99338.22;4181941;83;20666;-84
2022/12/31 16:29:26;;;;;;;7.92;3.95;;;;;;;13.99;99.66;99343.95;4167227;83;28769;-84
2022/12/31 16:35:29;;;;;;;8.55;3.77;;;;;;;14.03;99.51;99348.62;4182720;83;28529;-84
2022/12/31 16:41:41;;;;;;;7.53;3.80;;;;;;;14.15;98.87;99356.66;4187033;83;28557;-84
2022/12/31 16:47:43;;;;;;;6.85;3.52;;;;;;;14.17;98.82;99362.63;4190294;82;28576;-84
2022/12/31 16:53:44;;;;;;;5.45;3.25;;;;;;;14.19;99.08;99361.04;4201173;82;28522;-83
2022/12/31 16:59:46;;;;;;;7.95;3.98;;;;;;;14.33;98.59;99372.34;4177976;82;28542;-84
2022/12/31 17:05:56;;;;;;;6.15;3.42;;;;;;;14.39;98.17;99365.92;4135767;83;28559;-84
2022/12/31 17:12:10;;;;;;;6.05;3.42;;;;;;;14.46;97.73;99370.63;4121409;83;28643;-80
2022/12/31 17:18:17;;;;;;;6.15;3.83;;;;;;;14.50;97.32;99379.88;4099535;83;28554;-86
2022/12/31 17:24:19;;;;;;;7.83;3.92;;;;;;;14.57;96.77;99370.78;4189126;82;28609;-88
2022/12/31 17:30:43;;;;;;;7.60;3.60;;;;;;;14.62;96.06;99380.30;4169502;83;28540;-85
2022/12/31 17:37:02;;;;;;;7.22;3.62;;;;;;;14.76;95.20;99367.27;4214957;83;28526;-83
2022/12/31 17:43:11;;;;;;;7.72;3.70;;;;;;;14.79;94.44;99362.72;4194194;83;28602;-84
2022/12/31 17:49:25;;;;;;;;;;;;;;;;;;;;;
2022/12/31 17:55:36;;;;;;;;;;;;;;;;;;;;;
2022/12/31 18:01:40;;;;;;;5.87;3.30;;;;;;;14.89;91.97;99378.27;4042549;84;28611;-88
2022/12/31 18:08:15;;;;;;;6.92;3.10;;;;;;;14.81;91.48;99377.34;4047618;84;28550;-85
2022/12/31 18:13:59;;;;;;;5.60;3.25;;;;;;;14.92;91.03;99379.10;4052530;84;28586;-84
2022/12/31 18:20:00;;;;;;;5.62;3.40;;;;;;;14.85;90.77;99382.55;4075599;84;28478;-84
2022/12/31 18:26:01;;;;;;;6.03;3.30;;;;;;;14.90;90.28;99375.84;4083576;84;28574;-85
2022/12/31 18:32:02;;;;;;;5.90;3.17;;;;;;;14.86;90.19;99374.16;4131633;83;28510;-82
2022/12/31 18:38:07;;;;;;;6.03;3.62;;;;;;;14.89;89.98;99383.16;4186287;83;28574;-84
2022/12/31 18:44:14;;;;;;;6.55;3.52;;;;;;;14.97;89.64;99381.06;4151997;83;28606;-84
2022/12/31 18:50:16;;;;;;;5.75;3.30;;;;;;;15.01;89.41;99384.36;4158580;84;29096;-84
2022/12/31 18:56:19;;;;;;;6.05;3.25;;;;;;;15.01;88.86;99384.36;4173759;83;28561;-84
2022/12/31 19:02:21;;;;;;;6.20;3.20;;;;;;;14.96;88.90;99382.13;4096317;84;28555;-85
2022/12/31 19:08:23;;;;;;;7.12;3.12;;;;;;;14.99;88.22;99381.62;4168939;82;28494;-85
2022/12/31 19:14:25;;;;;;;7.85;3.58;;;;;;;15.05;87.47;99392.81;4191608;82;28554;-84
2022/12/31 19:20:39;;;;;;;5.97;3.27;;;;;;;14.95;86.89;99396.74;4206333;81;28491;-87
2022/12/31 19:26:41;;;;;;;5.67;3.22;;;;;;;14.98;87.02;99399.77;4181641;83;28557;-86
2022/12/31 19:32:40;;;;;;;6.00;3.30;;;;;;;14.99;86.50;99404.63;4124411;83;28576;-85
2022/12/31 19:38:44;;;;;;;5.65;3.22;;;;;;;14.80;86.49;99406.83;4107739;83;28621;-86
2022/12/31 19:44:46;;;;;;;7.00;3.80;;;;;;;14.79;86.55;99399.27;4202765;82;28567;-88
2022/12/31 19:50:49;;;;;;;6.67;3.20;;;;;;;14.83;86.81;99407.67;4111725;84;28525;-87
2022/12/31 19:56:50;;;;;;;7.35;3.70;;;;;;;14.71;86.71;99395.05;4135235;84;28503;-86
2022/12/31 20:02:51;;;;;;;6.75;3.58;;;;;;;14.77;86.61;99407.63;4119904;84;28509;-87
2022/12/31 20:08:52;;;;;;;6.78;3.67;;;;;;;14.74;86.50;99410.84;4205031;83;28555;-86
2022/12/31 20:14:54;;;;;;;6.15;3.62;;;;;;;14.77;86.25;99410.84;4204530;82;28588;-85
2022/12/31 20:20:55;;;;;;;6.55;4.10;;;;;;;14.78;85.94;99413.84;4124259;83;28513;-86
2022/12/31 20:26:57;;;;;;;8.45;4.65;;;;;;;14.70;85.67;99423.18;4131510;83;28547;-86
2022/12/31 20:32:58;;;;;;;6.80;4.03;;;;;;;14.71;86.11;99425.36;4177258;83;28522;-83
2022/12/31 20:38:59;;;;;;;7.60;4.12;;;;;;;14.69;85.50;99427.50;4186263;83;28556;-84
2022/12/31 20:45:01;;;;;;;6.05;3.30;;;;;;;14.49;86.99;99423.43;4243525;81;28557;-84
2022/12/31 20:51:03;;;;;;;6.08;3.20;;;;;;;14.50;86.81;99433.98;4251360;82;28552;-82
2022/12/31 20:57:04;;;;;;;4.70;2.83;;;;;;;14.47;86.29;99435.84;4262988;82;28509;-83
2022/12/31 21:03:05;;;;;;;4.47;2.60;;;;;;;14.54;85.56;99432.16;4259045;82;28545;-83
2022/12/31 21:09:07;;;;;;;4.90;2.62;;;;;;;14.67;84.71;99427.74;4252384;82;28518;-82
2022/12/31 21:15:11;;;;;;;4.08;2.40;;;;;;;14.80;83.57;99416.30;4257841;82;28529;-81
2022/12/31 21:21:12;;;;;;;5.10;2.35;;;;;;;14.90;82.47;99415.09;4252153;81;28645;-82
2022/12/31 21:27:13;;;;;;;4.00;2.45;;;;;;;14.96;81.94;99410.55;4242816;82;28527;-84
2022/12/31 21:33:14;;;;;;;3.95;2.58;;;;;;;14.98;81.54;99409.25;4204130;82;28524;-85
2022/12/31 21:39:15;;;;;;;4.67;2.80;;;;;;;14.98;80.68;99411.12;4224938;81;28487;-85
2022/12/31 21:45:18;;;;;;;4.03;2.20;;;;;;;15.03;80.52;99399.81;4122219;84;28581;-84
2022/12/31 21:51:26;;;;;;;3.67;1.90;;;;;;;15.07;80.26;99398.78;4122026;83;28564;-86
2022/12/31 21:57:27;;;;;;;4.73;2.60;;;;;;;15.22;79.78;99402.77;4034874;85;43416;-82
2022/12/31 22:03:28;;;;;;;4.00;2.25;;;;;;;15.17;79.51;99421.13;4105211;85;28672;-83
2022/12/31 22:09:29;;;;;;;5.50;2.40;;;;;;;15.17;78.88;99429.25;4118996;85;28531;-81
2022/12/31 22:15:32;;;;;;;4.15;2.42;;;;;;;15.17;78.54;99421.92;4109915;84;28518;-82
2022/12/31 22:21:36;;;;;;;10.63;4.80;;;;;;;15.23;78.37;99426.87;4112182;85;28586;-83
2022/12/31 22:27:37;;;;;;;4.95;2.70;;;;;;;15.33;77.50;99426.98;4104604;83;28618;-82
2022/12/31 22:33:38;;;;;;;4.20;2.60;;;;;;;15.38;77.13;99414.59;4165015;83;28537;-81
2022/12/31 22:39:40;;;;;;;5.17;2.40;;;;;;;15.33;76.91;99415.36;4159258;84;28517;-82
2022/12/31 22:45:41;;;;;;;3.55;2.08;;;;;;;15.29;76.39;99415.56;4165022;84;28529;-83
2022/12/31 22:51:42;;;;;;;4.97;2.60;;;;;;;15.28;76.14;99421.53;4149810;84;28525;-82
2022/12/31 22:57:43;;;;;;;4.17;2.42;;;;;;;15.30;76.24;99425.32;4213824;83;28529;-83
2022/12/31 23:03:45;;;;;;;6.83;4.10;;;;;;;15.30;75.96;99422.61;4221789;81;29465;-84
2022/12/31 23:28:45;;;;;;;35.63;19.95;;;;;;;15.37;74.27;99409.70;4200170;83;28545;-82
2022/12/31 23:34:46;;;;;;;22.25;11.38;;;;;;;15.44;73.83;99417.62;4120714;85;28533;-80
2022/12/31 23:40:47;;;;;;;16.90;9.03;;;;;;;15.49;73.26;99408.21;4172598;83;28608;-81
2022/12/31 23:46:48;;;;;;;12.30;7.78;;;;;;;15.55;72.45;99418.02;4179221;84;28601;-81
2022/12/31 23:52:51;;;;;;;11.85;6.55;;;;;;;15.59;72.46;99422.39;4156957;83;28586;-86
2022/12/31 23:58:55;;;;;;;13.22;6.58;;;;;;;15.55;72.21;99418.56;4159933;84;28561;-82
